Tulalip, Washington
Current Conditions -  °F | °C
As of 12:35 PM on Thursday 27 Nov 2014 (Local Time) from KAWO Reporting Station
Overcast Overcast  
Wind Chill: 57°   Ceiling: 2600
Heat Index: 57°   Visibility: 10mi
Dew Point: 48°   Wind: 28mph
Humidity: 72%   Direction: 170°S
Pressure: 29.77"   Gusts: 35mph
Location:  48.0955°N, 122.235°W
Report Text: KAWO 272035Z AUTO 17024G30KT 10SM BKN026 BKN032 OVC085 14/09 A2977 RMK AO1
Loading
Personal Weather Stations






























Interactive Weather Map New forecast layout! Learn more

10-Day Weather Forecast

Advertisements
Track Severe Weather on mobile